PWSweather.com
Personal Weather Stations
Station Observations
PENICUIKWS
PenicuikGB

PenicuikGB

Lat: 55.830932, Lon: -3.224533000000065

Elevation: 166

Station Type: Fine Offset

http://weather.penicuik.org

Latest ConditionsUpdated 10:30:03 PM GMT Thursday, Dec 14, 2017
Currently Today's Max Today's Min Today's Average
Temperature 29.8°F-1.2°C 37.4°F3.0°C 29.8°F-1.2°C 33.8°F1.0°C
Dew Point 27.6°F-2.4°C 35.3°F1.8°C 27.6°F-2.4°C 30.7°F-0.7°C
Winds 0.1 mph NW0.2 kmh NW 5.1 mph NW8.2 kmh NW - 1.6 mph 2.6 kmh
Wind Gusts 0.7 mph1.1 kmh 12.1 mph19.5 kmh - -
Humidity 91% 92% 86% 88%
Pressure 29.16 in987.5 mb 29.16 in987.5 mb 28.93 in979.7 mb -
Precipitation - 0.06 in1.5 mm - -
Hour Temp Dew Point Humidity Winds Wind Gusts Pressure Precip Precip Rate Daily Precip Total
10:30 PM 29.8°F-1.2°C 27.6°F-2.4°C 91% 0.1 mph NW0.2 kmh NW 0.7 mph1.1 kmh 29.16 in987.5 mb 0.00 in0.0 mm 0.00 in0.0 mm 0.06 in1.5 mm
10:15 PM 29.8°F-1.2°C 27.6°F-2.4°C 91% 0.3 mph NW0.5 kmh NW 1.6 mph2.6 kmh 29.16 in987.5 mb 0.00 in0.0 mm 0.00 in0.0 mm 0.06 in1.5 mm
10:00 PM 30.6°F-0.8°C 28.0°F-2.2°C 90% Calm Calm -- 29.15 in987.1 mb 0.00 in0.0 mm 0.00 in0.0 mm 0.06 in1.5 mm
09:45 PM 31.5°F-0.3°C 28.9°F-1.7°C 90% Calm Calm -- 29.14 in986.8 mb 0.00 in0.0 mm 0.00 in0.0 mm 0.06 in1.5 mm
09:30 PM 32.5°F0.3°C 29.9°F-1.2°C 90% Calm Calm -- 29.13 in986.5 mb 0.00 in0.0 mm 0.00 in0.0 mm 0.06 in1.5 mm
09:15 PM 32.9°F0.5°C 30.3°F-0.9°C 90% Calm Calm -- 29.11 in985.8 mb 0.00 in0.0 mm 0.00 in0.0 mm 0.06 in1.5 mm
09:00 PM 33.1°F0.6°C 30.5°F-0.8°C 90% Calm Calm -- 29.11 in985.8 mb 0.00 in0.0 mm 0.00 in0.0 mm 0.06 in1.5 mm
08:45 PM 33.3°F0.7°C 30.7°F-0.7°C 90% Calm Calm -- 29.10 in985.4 mb 0.00 in0.0 mm 0.00 in0.0 mm 0.06 in1.5 mm
08:30 PM 33.3°F0.7°C 30.7°F-0.7°C 90% Calm Calm -- 29.09 in985.1 mb 0.00 in0.0 mm 0.00 in0.0 mm 0.06 in1.5 mm
08:15 PM 33.3°F0.7°C 30.7°F-0.7°C 90% Calm Calm -- 29.08 in984.8 mb 0.00 in0.0 mm 0.00 in0.0 mm 0.06 in1.5 mm
08:00 PM 33.4°F0.8°C 30.8°F-0.7°C 90% 0.1 mph NW0.2 kmh NW 0.7 mph1.1 kmh 29.07 in984.4 mb 0.00 in0.0 mm 0.00 in0.0 mm 0.06 in1.5 mm
07:45 PM 33.4°F0.8°C 30.8°F-0.7°C 90% 0.3 mph NW0.5 kmh NW 0.7 mph1.1 kmh 29.06 in984.1 mb 0.00 in0.0 mm 0.00 in0.0 mm 0.06 in1.5 mm
07:30 PM 33.4°F0.8°C 30.8°F-0.7°C 90% 0.4 mph NW0.6 kmh NW 0.7 mph1.1 kmh 29.05 in983.7 mb 0.00 in0.0 mm 0.00 in0.0 mm 0.06 in1.5 mm
07:15 PM 33.4°F0.8°C 30.8°F-0.7°C 90% 0.4 mph NW0.6 kmh NW 1.6 mph2.6 kmh 29.05 in983.7 mb 0.00 in0.0 mm 0.00 in0.0 mm 0.06 in1.5 mm
07:00 PM 33.6°F0.9°C 30.7°F-0.7°C 89% 2.0 mph NW3.2 kmh NW 3.1 mph5.0 kmh 29.04 in983.4 mb 0.00 in0.0 mm 0.00 in0.0 mm 0.06 in1.5 mm
06:45 PM 33.1°F0.6°C 30.2°F-1.0°C 89% 1.6 mph NW2.6 kmh NW 3.8 mph6.1 kmh 29.04 in983.4 mb 0.00 in0.0 mm 0.00 in0.0 mm 0.06 in1.5 mm
06:15 PM 31.8°F-0.1°C 29.2°F-1.6°C 90% 2.2 mph NW3.5 kmh NW 4.5 mph7.2 kmh 29.02 in982.7 mb 0.00 in0.0 mm 0.00 in0.0 mm 0.06 in1.5 mm
06:00 PM 31.6°F-0.2°C 28.8°F-1.8°C 89% 0.9 mph NW1.4 kmh NW 2.2 mph3.5 kmh 29.02 in982.7 mb 0.00 in0.0 mm 0.00 in0.0 mm 0.06 in1.5 mm
05:45 PM 31.1°F-0.5°C 28.3°F-2.1°C 89% 0.7 mph NW1.1 kmh NW 3.8 mph6.1 kmh 29.01 in982.4 mb 0.00 in0.0 mm 0.00 in0.0 mm 0.06 in1.5 mm
05:30 PM 31.3°F-0.4°C 28.4°F-2.0°C 89% 0.6 mph NW1.0 kmh NW 1.6 mph2.6 kmh 29.01 in982.4 mb 0.00 in0.0 mm 0.00 in0.0 mm 0.06 in1.5 mm
05:15 PM 31.3°F-0.4°C 28.4°F-2.0°C 89% 0.1 mph NW0.2 kmh NW 0.7 mph1.1 kmh 29.01 in982.4 mb 0.00 in0.0 mm 0.00 in0.0 mm 0.06 in1.5 mm
05:00 PM 31.6°F-0.2°C 28.8°F-1.8°C 89% 0.1 mph NW0.2 kmh NW 0.7 mph1.1 kmh 29.00 in982.1 mb 0.00 in0.0 mm 0.00 in0.0 mm 0.06 in1.5 mm
04:45 PM 32.0°F0.0°C 28.9°F-1.7°C 88% 0.5 mph NW0.8 kmh NW 1.6 mph2.6 kmh 29.00 in982.1 mb 0.00 in0.0 mm 0.00 in0.0 mm 0.06 in1.5 mm
04:30 PM 32.7°F0.4°C 29.6°F-1.3°C 88% 1.3 mph NW2.1 kmh NW 2.2 mph3.5 kmh 28.99 in981.7 mb 0.00 in0.0 mm 0.00 in0.0 mm 0.06 in1.5 mm
04:15 PM 33.3°F0.7°C 30.1°F-1.1°C 88% 1.2 mph NW1.9 kmh NW 1.6 mph2.6 kmh 28.99 in981.7 mb 0.00 in0.0 mm 0.00 in0.0 mm 0.06 in1.5 mm
04:00 PM 33.8°F1.0°C 30.4°F-0.9°C 87% 2.1 mph NW3.4 kmh NW 3.8 mph6.1 kmh 29.00 in982.1 mb 0.00 in0.0 mm 0.00 in0.0 mm 0.06 in1.5 mm
03:45 PM 34.0°F1.1°C 30.5°F-0.8°C 87% 0.6 mph SW1.0 kmh SW 1.6 mph2.6 kmh 28.98 in981.4 mb 0.01 in0.3 mm 0.00 in0.0 mm 0.06 in1.5 mm
03:30 PM 34.5°F1.4°C 31.1°F-0.5°C 87% 1.0 mph S1.6 kmh S 1.6 mph2.6 kmh 28.98 in981.4 mb 0.01 in0.3 mm 0.04 in1.0 mm 0.06 in1.5 mm
02:45 PM 35.6°F2.0°C 32.1°F0.1°C 87% 0.2 mph E0.3 kmh E 0.7 mph1.1 kmh 28.97 in981.0 mb 0.00 in0.0 mm 0.00 in0.0 mm 0.05 in1.3 mm
02:30 PM 36.3°F2.4°C 32.8°F0.4°C 87% 1.3 mph N2.1 kmh N 2.2 mph3.5 kmh 28.96 in980.7 mb 0.00 in0.0 mm 0.00 in0.0 mm 0.05 in1.3 mm
02:15 PM 36.9°F2.7°C 33.4°F0.8°C 87% 1.8 mph E2.9 kmh E 3.1 mph5.0 kmh 28.95 in980.4 mb 0.00 in0.0 mm 0.00 in0.0 mm 0.05 in1.3 mm
02:00 PM 37.4°F3.0°C 35.3°F1.8°C 92% 1.6 mph SW2.6 kmh SW 3.1 mph5.0 kmh 28.94 in980.0 mb 0.00 in0.0 mm 0.00 in0.0 mm 0.05 in1.3 mm
01:30 PM 37.4°F3.0°C 35.3°F1.8°C 92% 2.3 mph SE3.7 kmh SE 3.8 mph6.1 kmh 28.94 in980.0 mb 0.00 in0.0 mm 0.00 in0.0 mm 0.05 in1.3 mm
01:15 PM 36.9°F2.7°C 33.6°F0.9°C 88% 1.0 mph S1.6 kmh S 1.6 mph2.6 kmh 28.94 in980.0 mb 0.00 in0.0 mm 0.00 in0.0 mm 0.05 in1.3 mm
01:00 PM 36.5°F2.5°C 33.3°F0.7°C 88% 1.1 mph SW1.8 kmh SW 3.1 mph5.0 kmh 28.93 in979.7 mb 0.00 in0.0 mm 0.00 in0.0 mm 0.05 in1.3 mm
12:45 PM 36.1°F2.3°C 32.9°F0.5°C 88% 1.7 mph S2.7 kmh S 3.1 mph5.0 kmh 28.93 in979.7 mb 0.00 in0.0 mm 0.00 in0.0 mm 0.05 in1.3 mm
12:15 PM 36.1°F2.3°C 32.9°F0.5°C 88% 1.8 mph E2.9 kmh E 3.1 mph5.0 kmh 28.93 in979.7 mb 0.01 in0.3 mm 0.00 in0.0 mm 0.05 in1.3 mm
12:00 PM 36.0°F2.2°C 32.8°F0.4°C 88% 1.4 mph SW2.3 kmh SW 2.2 mph3.5 kmh 28.93 in979.7 mb 0.01 in0.3 mm 0.00 in0.0 mm 0.05 in1.3 mm
11:45 AM 36.0°F2.2°C 32.8°F0.4°C 88% 1.8 mph WSW2.9 kmh WSW 3.1 mph5.0 kmh 28.94 in980.0 mb 0.01 in0.3 mm 0.04 in1.0 mm 0.05 in1.3 mm
11:30 AM 36.0°F2.2°C 32.8°F0.4°C 88% 1.6 mph SSW2.6 kmh SSW 3.1 mph5.0 kmh 28.93 in979.7 mb 0.00 in0.0 mm 0.00 in0.0 mm 0.04 in1.0 mm
11:15 AM 35.4°F1.9°C 32.2°F0.1°C 88% 1.0 mph WSW1.6 kmh WSW 2.2 mph3.5 kmh 28.93 in979.7 mb 0.00 in0.0 mm 0.00 in0.0 mm 0.04 in1.0 mm
11:00 AM 35.1°F1.7°C 31.9°F-0.1°C 88% 0.7 mph SSE1.1 kmh SSE 1.6 mph2.6 kmh 28.94 in980.0 mb 0.01 in0.3 mm 0.00 in0.0 mm 0.04 in1.0 mm
10:45 AM 35.1°F1.7°C 31.9°F-0.1°C 88% 0.9 mph NNW1.4 kmh NNW 1.6 mph2.6 kmh 28.95 in980.4 mb 0.01 in0.3 mm 0.00 in0.0 mm 0.04 in1.0 mm
10:30 AM 35.1°F1.7°C 31.9°F-0.1°C 88% 1.0 mph E1.6 kmh E 2.2 mph3.5 kmh 28.95 in980.4 mb 0.02 in0.5 mm 0.00 in0.0 mm 0.04 in1.0 mm
10:15 AM 35.1°F1.7°C 31.9°F-0.1°C 88% 1.1 mph WNW1.8 kmh WNW 2.2 mph3.5 kmh 28.95 in980.4 mb 0.02 in0.5 mm 0.04 in1.0 mm 0.04 in1.0 mm
10:00 AM 35.1°F1.7°C 31.9°F-0.1°C 88% 1.9 mph ESE3.1 kmh ESE 3.1 mph5.0 kmh 28.95 in980.4 mb 0.01 in0.3 mm 0.00 in0.0 mm 0.02 in0.5 mm
09:45 AM 35.2°F1.8°C 32.1°F0.1°C 88% 1.4 mph WSW2.3 kmh WSW 3.1 mph5.0 kmh 28.95 in980.4 mb 0.01 in0.3 mm 0.04 in1.0 mm 0.02 in0.5 mm
09:30 AM 35.2°F1.8°C 32.1°F0.1°C 88% 3.1 mph W5.0 kmh W 6.9 mph11.1 kmh 28.95 in980.4 mb 0.00 in0.0 mm 0.00 in0.0 mm 0.01 in0.3 mm
09:15 AM 35.2°F1.8°C 32.1°F0.1°C 88% 2.4 mph WNW3.9 kmh WNW 4.5 mph7.2 kmh 28.95 in980.4 mb 0.00 in0.0 mm 0.00 in0.0 mm 0.01 in0.3 mm
09:00 AM 35.2°F1.8°C 32.1°F0.1°C 88% 2.1 mph SW3.4 kmh SW 3.1 mph5.0 kmh 28.95 in980.4 mb 0.00 in0.0 mm 0.00 in0.0 mm 0.01 in0.3 mm
08:45 AM 35.2°F1.8°C 32.1°F0.1°C 88% 2.1 mph W3.4 kmh W 3.8 mph6.1 kmh 28.95 in980.4 mb 0.00 in0.0 mm 0.00 in0.0 mm 0.01 in0.3 mm
08:30 AM 35.2°F1.8°C 32.1°F0.1°C 88% 3.3 mph SW5.3 kmh SW 6.0 mph9.7 kmh 28.95 in980.4 mb 0.00 in0.0 mm 0.00 in0.0 mm 0.01 in0.3 mm
08:15 AM 35.1°F1.7°C 31.9°F-0.1°C 88% 3.1 mph WSW5.0 kmh WSW 5.4 mph8.7 kmh 28.96 in980.7 mb 0.00 in0.0 mm 0.00 in0.0 mm 0.01 in0.3 mm
08:00 AM 34.9°F1.6°C 31.7°F-0.2°C 88% 2.5 mph NW4.0 kmh NW 4.5 mph7.2 kmh 28.96 in980.7 mb 0.00 in0.0 mm 0.00 in0.0 mm 0.01 in0.3 mm
07:45 AM 34.7°F1.5°C 31.5°F-0.3°C 88% 2.1 mph N3.4 kmh N 3.8 mph6.1 kmh 28.95 in980.4 mb 0.01 in0.3 mm 0.00 in0.0 mm 0.01 in0.3 mm
07:30 AM 34.7°F1.5°C 31.5°F-0.3°C 88% 3.0 mph NW4.8 kmh NW 5.4 mph8.7 kmh 28.96 in980.7 mb 0.01 in0.3 mm 0.00 in0.0 mm 0.01 in0.3 mm
07:15 AM 34.7°F1.5°C 31.5°F-0.3°C 88% 2.4 mph SW3.9 kmh SW 4.5 mph7.2 kmh 28.96 in980.7 mb 0.01 in0.3 mm 0.00 in0.0 mm 0.01 in0.3 mm
07:00 AM 34.9°F1.6°C 31.7°F-0.2°C 88% 5.1 mph NW8.2 kmh NW 12.1 mph19.5 kmh 28.96 in980.7 mb 0.01 in0.3 mm 0.01 in0.3 mm 0.01 in0.3 mm
06:45 AM 34.7°F1.5°C 31.5°F-0.3°C 88% 1.9 mph WNW3.1 kmh WNW 3.8 mph6.1 kmh 28.96 in980.7 mb 0.00 in0.0 mm 0.00 in0.0 mm 0.00 in0.0 mm
06:30 AM 34.9°F1.6°C 31.7°F-0.2°C 88% 1.9 mph WNW3.1 kmh WNW 4.5 mph7.2 kmh 28.97 in981.0 mb 0.00 in0.0 mm 0.00 in0.0 mm 0.00 in0.0 mm
06:15 AM 35.1°F1.7°C 31.9°F-0.1°C 88% 3.1 mph WNW5.0 kmh WNW 6.0 mph9.7 kmh 28.97 in981.0 mb 0.00 in0.0 mm 0.00 in0.0 mm 0.00 in0.0 mm
06:00 AM 34.9°F1.6°C 31.7°F-0.2°C 88% 1.8 mph NNW2.9 kmh NNW 3.8 mph6.1 kmh 28.97 in981.0 mb 0.00 in0.0 mm 0.00 in0.0 mm 0.00 in0.0 mm
05:30 AM 34.7°F1.5°C 31.5°F-0.3°C 88% 2.6 mph WNW4.2 kmh WNW 4.5 mph7.2 kmh 28.98 in981.4 mb 0.00 in0.0 mm 0.00 in0.0 mm 0.00 in0.0 mm
05:15 AM 34.5°F1.4°C 31.3°F-0.4°C 88% 2.9 mph WNW4.7 kmh WNW 4.5 mph7.2 kmh 28.98 in981.4 mb 0.00 in0.0 mm 0.00 in0.0 mm 0.00 in0.0 mm
05:00 AM 34.2°F1.2°C 31.0°F-0.6°C 88% 2.8 mph NW4.5 kmh NW 4.5 mph7.2 kmh 28.98 in981.4 mb 0.00 in0.0 mm 0.00 in0.0 mm 0.00 in0.0 mm
04:45 AM 33.6°F0.9°C 30.7°F-0.7°C 89% 2.7 mph NW4.3 kmh NW 6.9 mph11.1 kmh 28.98 in981.4 mb 0.00 in0.0 mm 0.00 in0.0 mm 0.00 in0.0 mm
04:30 AM 32.9°F0.5°C 29.8°F-1.2°C 88% 2.3 mph NW3.7 kmh NW 3.8 mph6.1 kmh 28.98 in981.4 mb 0.00 in0.0 mm 0.00 in0.0 mm 0.00 in0.0 mm
04:15 AM 32.0°F0.0°C 28.9°F-1.7°C 88% 1.4 mph NW2.3 kmh NW 2.2 mph3.5 kmh 29.00 in982.1 mb 0.00 in0.0 mm 0.00 in0.0 mm 0.00 in0.0 mm
04:01 AM 31.1°F-0.5°C 28.0°F-2.2°C 88% 1.1 mph NW1.8 kmh NW 1.6 mph2.6 kmh 29.00 in982.1 mb 0.00 in0.0 mm 0.00 in0.0 mm 0.00 in0.0 mm
03:30 AM 31.5°F-0.3°C 28.3°F-2.1°C 88% 1.3 mph NW2.1 kmh NW 2.2 mph3.5 kmh 29.01 in982.4 mb 0.00 in0.0 mm 0.00 in0.0 mm 0.00 in0.0 mm
03:15 AM 31.5°F-0.3°C 28.3°F-2.1°C 88% 1.4 mph NW2.3 kmh NW 2.2 mph3.5 kmh 29.02 in982.7 mb 0.00 in0.0 mm 0.00 in0.0 mm 0.00 in0.0 mm
03:00 AM 31.8°F-0.1°C 28.7°F-1.8°C 88% 1.8 mph NW2.9 kmh NW 4.5 mph7.2 kmh 29.02 in982.7 mb 0.00 in0.0 mm 0.00 in0.0 mm 0.00 in0.0 mm
02:45 AM 32.4°F0.2°C 28.9°F-1.7°C 87% 1.4 mph NW2.3 kmh NW 2.2 mph3.5 kmh 29.02 in982.7 mb 0.00 in0.0 mm 0.00 in0.0 mm 0.00 in0.0 mm
02:30 AM 32.5°F0.3°C 29.1°F-1.6°C 87% 2.9 mph NW4.7 kmh NW 6.0 mph9.7 kmh 29.02 in982.7 mb 0.00 in0.0 mm 0.00 in0.0 mm 0.00 in0.0 mm
02:15 AM 32.5°F0.3°C 29.1°F-1.6°C 87% 2.4 mph NW3.9 kmh NW 4.5 mph7.2 kmh 29.02 in982.7 mb 0.00 in0.0 mm 0.00 in0.0 mm 0.00 in0.0 mm
02:00 AM 32.5°F0.3°C 28.8°F-1.8°C 86% 1.2 mph NW1.9 kmh NW 2.2 mph3.5 kmh 29.03 in983.1 mb 0.00 in0.0 mm 0.00 in0.0 mm 0.00 in0.0 mm
01:45 AM 32.9°F0.5°C 29.5°F-1.4°C 87% 2.6 mph NW4.2 kmh NW 5.4 mph8.7 kmh 29.02 in982.7 mb 0.00 in0.0 mm 0.00 in0.0 mm 0.00 in0.0 mm
01:30 AM 32.7°F0.4°C 29.0°F-1.7°C 86% 2.5 mph NW4.0 kmh NW 3.8 mph6.1 kmh 29.02 in982.7 mb 0.00 in0.0 mm 0.00 in0.0 mm 0.00 in0.0 mm
01:00 AM 33.1°F0.6°C 29.6°F-1.3°C 87% 2.8 mph NW4.5 kmh NW 6.0 mph9.7 kmh 29.02 in982.7 mb 0.00 in0.0 mm 0.00 in0.0 mm 0.00 in0.0 mm
12:45 AM 32.9°F0.5°C 29.8°F-1.2°C 88% 3.7 mph NW6.0 kmh NW 6.9 mph11.1 kmh 29.00 in982.1 mb 0.00 in0.0 mm 0.00 in0.0 mm 0.00 in0.0 mm
12:30 AM 32.5°F0.3°C 29.1°F-1.6°C 87% 4.0 mph NW6.4 kmh NW 9.2 mph14.8 kmh 29.01 in982.4 mb 0.00 in0.0 mm 0.00 in0.0 mm 0.00 in0.0 mm
12:15 AM 31.8°F-0.1°C 28.7°F-1.8°C 88% 2.9 mph NW4.7 kmh NW 5.4 mph8.7 kmh 29.01 in982.4 mb 0.00 in0.0 mm 0.00 in0.0 mm 0.00 in0.0 mm
12:00 AM 32.0°F0.0°C 28.6°F-1.9°C 87% 2.0 mph NW3.2 kmh NW 3.8 mph6.1 kmh 29.01 in982.4 mb 0.00 in0.0 mm 0.00 in0.0 mm 0.00 in0.0 mm